Time;durP1;ratioP1;P1;durP2;ratioP2;P2;SDS_P1;SDS_P2;PMS_P1;PMS_P2;Temp;Humidity;BMP_temperature;BMP_pressure;BME280_temperature;BME280_humidity;BME280_pressure;Samples;Min_cycle;Max_cycle;Signal;HPM_P1;HPM_P2
2021/10/05 00:01:15;;;;;;;2.70;2.50;;;;;;;;;;5010959;28;20217;-73
2021/10/05 00:03:40;;;;;;;3.60;3.10;;;10.50;82.60;;;;;;5011346;28;20213;-74
2021/10/05 00:06:06;;;;;;;3.00;2.88;;;;;;;;;;5013300;28;20561;-73
2021/10/05 00:08:32;;;;;;;2.65;2.47;;;10.40;82.70;;;;;;5012947;28;20177;-72
2021/10/05 00:10:58;;;;;;;2.67;2.47;;;10.40;82.80;;;;;;5011389;28;20191;-72
2021/10/05 00:13:23;;;;;;;3.33;3.07;;;10.30;82.90;;;;;;5010168;28;20299;-72
2021/10/05 00:15:50;;;;;;;3.90;2.73;;;10.40;82.60;;;;;;5009256;28;20322;-72
2021/10/05 00:18:16;;;;;;;3.73;2.80;;;10.30;82.90;;;;;;5008305;28;20633;-73
2021/10/05 00:20:41;;;;;;;5.20;2.47;;;10.40;83.10;;;;;;5013179;28;20662;-72
2021/10/05 00:23:07;;;;;;;2.20;2.00;;;10.40;83.00;;;;;;5011405;28;20197;-72
2021/10/05 00:25:33;;;;;;;3.37;2.50;;;10.40;83.00;;;;;;5011171;28;20260;-73
2021/10/05 00:27:59;;;;;;;2.53;2.33;;;10.40;83.00;;;;;;5014756;28;20200;-73
2021/10/05 00:30:25;;;;;;;3.30;3.00;;;;;;;;;;5008689;28;20185;-73
2021/10/05 00:32:51;;;;;;;3.17;2.60;;;;;;;;;;5013659;28;20195;-73
2021/10/05 00:35:17;;;;;;;3.30;2.70;;;10.20;83.30;;;;;;5015212;28;20763;-73
2021/10/05 00:37:44;;;;;;;2.42;2.22;;;;;;;;;;5013038;28;20264;-72
2021/10/05 00:40:10;;;;;;;2.75;2.55;;;10.20;83.70;;;;;;5011595;28;20189;-73
2021/10/05 00:42:36;;;;;;;2.07;1.97;;;10.10;83.60;;;;;;5012282;28;20684;-73
2021/10/05 00:45:02;;;;;;;2.37;2.27;;;10.10;83.50;;;;;;5009674;28;20307;-73
2021/10/05 00:47:28;;;;;;;2.87;2.60;;;;;;;;;;5015037;28;20303;-73
2021/10/05 00:49:53;;;;;;;2.63;2.27;;;10.00;83.70;;;;;;5015594;28;20192;-73
2021/10/05 00:52:19;;;;;;;2.53;2.33;;;10.00;84.00;;;;;;5017684;28;20181;-74
2021/10/05 00:54:47;;;;;;;2.60;2.27;;;10.00;84.00;;;;;;5009126;28;20189;-73
2021/10/05 00:57:13;;;;;;;3.37;2.47;;;10.00;83.50;;;;;;5008568;28;20216;-73
2021/10/05 00:59:39;;;;;;;2.40;2.20;;;10.00;83.70;;;;;;5010518;28;20176;-74
2021/10/05 01:02:13;;;;;;;2.50;2.30;;;10.00;83.50;;;;;;5013078;28;20180;-73
2021/10/05 01:04:41;;;;;;;2.37;2.27;;;10.00;84.10;;;;;;5009875;28;20219;-74
2021/10/05 01:07:17;;;;;;;2.60;2.47;;;10.00;83.60;;;;;;5009045;28;20259;-72
2021/10/05 01:09:44;;;;;;;3.10;3.00;;;10.00;83.90;;;;;;5009145;28;20609;-72
2021/10/05 01:12:10;;;;;;;3.40;3.10;;;10.00;83.80;;;;;;5013908;28;20185;-72
2021/10/05 01:14:36;;;;;;;3.33;3.07;;;9.90;83.80;;;;;;5008745;28;20187;-72
2021/10/05 01:17:03;;;;;;;3.10;2.60;;;9.90;84.00;;;;;;5014091;28;20185;-74
2021/10/05 01:19:29;;;;;;;2.83;2.67;;;9.90;84.10;;;;;;5011982;28;20678;-73
2021/10/05 01:21:55;;;;;;;2.73;2.53;;;9.90;84.40;;;;;;5014546;28;20188;-73
2021/10/05 01:24:22;;;;;;;3.03;2.90;;;9.80;84.50;;;;;;5012248;28;20215;-73
2021/10/05 01:26:49;;;;;;;5.37;2.87;;;9.80;84.50;;;;;;5016349;28;20181;-73
2021/10/05 01:29:19;;;;;;;2.13;2.03;;;9.80;84.30;;;;;;5016437;28;20180;-73
2021/10/05 01:31:48;;;;;;;3.53;2.63;;;9.80;84.10;;;;;;5011030;28;20685;-73
2021/10/05 01:34:15;;;;;;;7.13;3.97;;;9.70;84.40;;;;;;5014419;28;20188;-73
2021/10/05 01:36:41;;;;;;;5.10;4.00;;;9.70;85.40;;;;;;5010052;28;20276;-73
2021/10/05 01:39:24;;;;;;;5.03;3.97;;;9.60;85.20;;;;;;5013197;28;20189;-73
2021/10/05 01:41:54;;;;;;;3.23;3.03;;;9.60;85.50;;;;;;5012542;28;20196;-73
2021/10/05 01:44:20;;;;;;;2.60;2.50;;;;;;;;;;5006368;28;20273;-73
2021/10/05 01:46:46;;;;;;;3.53;2.33;;;9.60;85.50;;;;;;5008104;28;20291;-72
2021/10/05 01:49:17;;;;;;;2.90;2.40;;;9.60;85.40;;;;;;5007202;28;21040;-73
2021/10/05 01:51:43;;;;;;;3.60;2.03;;;9.60;85.40;;;;;;5013156;28;20193;-73
2021/10/05 01:54:10;;;;;;;2.43;2.17;;;9.60;85.40;;;;;;5014105;28;20264;-72
2021/10/05 01:56:35;;;;;;;2.33;2.23;;;9.60;85.40;;;;;;5016148;28;20185;-73
2021/10/05 01:59:01;;;;;;;2.27;2.17;;;9.60;85.30;;;;;;5010663;28;20188;-73
2021/10/05 02:01:27;;;;;;;2.47;2.07;;;9.60;85.30;;;;;;5014753;28;20685;-73
2021/10/05 02:03:53;;;;;;;2.67;1.93;;;9.50;85.70;;;;;;5009172;28;20217;-73
2021/10/05 02:06:18;;;;;;;2.93;2.67;;;9.50;85.60;;;;;;5010304;28;20181;-73
2021/10/05 02:08:44;;;;;;;2.53;2.33;;;;;;;;;;5007987;28;20185;-73
2021/10/05 02:11:10;;;;;;;4.77;2.67;;;9.50;85.70;;;;;;5010616;28;20176;-73
2021/10/05 02:13:36;;;;;;;7.50;2.70;;;9.40;86.30;;;;;;5011427;28;20213;-73
2021/10/05 02:16:02;;;;;;;2.57;2.47;;;9.40;85.80;;;;;;5015970;28;20181;-72
2021/10/05 02:18:28;;;;;;;4.50;2.40;;;9.40;86.00;;;;;;5015458;28;20625;-73
2021/10/05 02:20:53;;;;;;;2.97;2.70;;;9.40;86.00;;;;;;5010971;28;20204;-73
2021/10/05 02:23:19;;;;;;;3.63;3.20;;;;;;;;;;5011298;28;20744;-73
2021/10/05 02:25:45;;;;;;;2.73;2.53;;;;;;;;;;5019531;28;20242;-73
2021/10/05 02:28:11;;;;;;;6.13;3.03;;;9.30;86.10;;;;;;5014809;28;20192;-74
2021/10/05 02:30:38;;;;;;;2.73;2.53;;;9.30;86.20;;;;;;5014877;28;20180;-73
2021/10/05 02:33:04;;;;;;;4.63;2.40;;;9.30;86.30;;;;;;5015446;28;20180;-74
2021/10/05 02:35:30;;;;;;;2.50;2.40;;;9.30;85.90;;;;;;5018927;28;20185;-73
2021/10/05 02:37:55;;;;;;;5.47;3.13;;;9.30;86.00;;;;;;5010019;28;20188;-73
2021/10/05 02:40:21;;;;;;;2.57;2.47;;;9.20;86.00;;;;;;5010391;28;20627;-74
2021/10/05 02:42:47;;;;;;;3.37;3.10;;;9.10;86.40;;;;;;5009395;28;20195;-74
2021/10/05 02:45:13;;;;;;;3.20;3.00;;;9.10;86.40;;;;;;5009771;28;20244;-74
2021/10/05 02:47:39;;;;;;;3.30;2.20;;;9.10;86.80;;;;;;5018803;28;20181;-73
2021/10/05 02:50:05;;;;;;;3.70;2.90;;;9.00;86.90;;;;;;5008860;28;20181;-73
2021/10/05 02:52:31;;;;;;;2.50;2.40;;;9.00;86.70;;;;;;5009906;28;20193;-73
2021/10/05 02:54:57;;;;;;;8.73;2.77;;;9.00;86.70;;;;;;5013332;28;20575;-73
2021/10/05 02:57:23;;;;;;;3.83;2.43;;;9.00;86.90;;;;;;5017463;28;20299;-74
2021/10/05 02:59:49;;;;;;;3.03;2.50;;;8.90;86.90;;;;;;5016799;28;20181;-73
2021/10/05 03:02:15;;;;;;;2.40;2.30;;;8.90;87.40;;;;;;5013920;28;20844;-73
2021/10/05 03:04:41;;;;;;;4.77;2.57;;;8.80;87.90;;;;;;5012880;28;20240;-73
2021/10/05 03:07:08;;;;;;;3.03;2.83;;;8.70;88.00;;;;;;5015833;28;20181;-73
2021/10/05 03:09:34;;;;;;;2.37;2.23;;;8.70;88.00;;;;;;5014171;28;20243;-73
2021/10/05 03:12:01;;;;;;;3.20;2.30;;;8.60;88.50;;;;;;5017740;28;20196;-74
2021/10/05 03:14:26;;;;;;;3.40;3.00;;;8.60;88.30;;;;;;5015186;28;20266;-74
2021/10/05 03:16:52;;;;;;;2.50;2.30;;;8.60;88.10;;;;;;5013000;28;20192;-73
2021/10/05 03:19:18;;;;;;;2.47;2.10;;;8.60;88.00;;;;;;5011818;28;20187;-73
2021/10/05 03:21:44;;;;;;;4.07;3.50;;;8.60;88.20;;;;;;5008003;28;20742;-72
2021/10/05 03:24:10;;;;;;;2.43;2.23;;;8.60;88.30;;;;;;5008778;28;20223;-71
2021/10/05 03:26:36;;;;;;;2.47;2.27;;;8.60;88.10;;;;;;5010509;28;20189;-72
2021/10/05 03:29:03;;;;;;;3.50;2.27;;;8.60;88.00;;;;;;5018073;28;20191;-72
2021/10/05 03:31:30;;;;;;;5.10;2.90;;;8.60;87.90;;;;;;5013277;28;20181;-72
2021/10/05 03:33:55;;;;;;;2.23;2.13;;;8.60;88.00;;;;;;5016898;28;20192;-72
2021/10/05 03:36:21;;;;;;;2.10;2.00;;;8.60;88.30;;;;;;5010501;28;20185;-72
2021/10/05 03:38:47;;;;;;;2.37;2.27;;;8.60;88.10;;;;;;5010153;28;20185;-72
2021/10/05 03:41:13;;;;;;;3.37;2.53;;;8.60;88.20;;;;;;5010419;28;20181;-73
2021/10/05 03:43:39;;;;;;;3.03;2.70;;;8.60;88.10;;;;;;5010803;28;20694;-73
2021/10/05 03:46:06;;;;;;;3.10;2.83;;;8.60;88.40;;;;;;5014762;28;20182;-73
2021/10/05 03:48:32;;;;;;;4.77;3.00;;;8.60;88.30;;;;;;5016254;28;20184;-73
2021/10/05 03:50:58;;;;;;;2.90;2.70;;;8.60;88.30;;;;;;5009560;28;20181;-73
2021/10/05 03:53:23;;;;;;;2.17;2.07;;;8.60;88.40;;;;;;5009198;28;20192;-73
2021/10/05 03:55:52;;;;;;;2.47;2.40;;;8.60;88.10;;;;;;5010291;28;20264;-73
2021/10/05 03:58:18;;;;;;;3.27;2.57;;;8.60;88.10;;;;;;5014338;28;20188;-72
2021/10/05 04:00:45;;;;;;;3.10;2.87;;;8.60;88.30;;;;;;5008726;28;20927;-73
2021/10/05 04:03:11;;;;;;;3.40;2.80;;;8.50;87.90;;;;;;5008040;28;20197;-74
2021/10/05 04:05:37;;;;;;;5.07;2.83;;;8.60;88.20;;;;;;5021461;28;20188;-72
2021/10/05 04:08:03;;;;;;;4.23;2.73;;;8.60;88.20;;;;;;5006890;28;20547;-73
2021/10/05 04:10:29;;;;;;;4.50;2.43;;;8.60;88.20;;;;;;5008026;28;20200;-71
2021/10/05 04:12:56;;;;;;;4.03;2.70;;;8.60;88.10;;;;;;5011707;28;20197;-73
2021/10/05 04:15:22;;;;;;;2.27;2.07;;;8.60;88.10;;;;;;5009112;28;20246;-72
2021/10/05 04:17:47;;;;;;;2.87;2.67;;;8.60;88.10;;;;;;5015391;28;20185;-72
2021/10/05 04:20:14;;;;;;;2.80;2.60;;;8.60;88.30;;;;;;5007109;28;20196;-73
2021/10/05 04:22:49;;;;;;;2.40;2.30;;;8.50;88.20;;;;;;5012234;28;20185;-76
2021/10/05 04:25:15;;;;;;;3.30;2.73;;;8.50;87.90;;;;;;5008908;28;20215;-73
2021/10/05 04:27:41;;;;;;;4.37;2.83;;;8.50;88.50;;;;;;5010723;28;20666;-73
2021/10/05 04:30:10;;;;;;;3.00;2.77;;;8.50;88.60;;;;;;5012829;28;20330;-73
2021/10/05 04:32:35;;;;;;;7.53;3.10;;;8.50;88.40;;;;;;5041697;28;20668;-72
2021/10/05 04:35:01;;;;;;;3.00;2.80;;;8.50;88.40;;;;;;5007158;28;20185;-73
2021/10/05 04:37:27;;;;;;;2.33;2.23;;;8.50;88.40;;;;;;5007670;28;20860;-74
2021/10/05 04:39:53;;;;;;;2.60;2.40;;;8.40;88.60;;;;;;5012692;28;20350;-71
2021/10/05 04:42:19;;;;;;;3.10;2.80;;;8.40;88.60;;;;;;5009289;28;20237;-72
2021/10/05 04:44:45;;;;;;;3.13;2.93;;;8.40;88.80;;;;;;5007305;28;20594;-74
2021/10/05 04:47:10;;;;;;;4.70;3.23;;;8.40;88.70;;;;;;5004427;28;20181;-74
2021/10/05 04:49:36;;;;;;;3.10;2.43;;;8.40;88.80;;;;;;5014401;28;20267;-73
2021/10/05 04:52:02;;;;;;;4.20;2.83;;;8.50;88.80;;;;;;5014424;28;20669;-75
2021/10/05 04:54:28;;;;;;;12.90;2.83;;;8.50;88.70;;;;;;5010786;28;20184;-73
2021/10/05 04:56:55;;;;;;;3.03;2.90;;;8.50;88.60;;;;;;5012334;28;20639;-73
2021/10/05 04:59:21;;;;;;;4.63;3.20;;;8.50;88.50;;;;;;5007932;28;20595;-73
2021/10/05 05:01:47;;;;;;;3.93;3.53;;;8.60;88.80;;;;;;5006295;28;20181;-71
2021/10/05 05:04:13;;;;;;;3.50;3.30;;;8.60;88.70;;;;;;5008581;28;20773;-71
2021/10/05 05:06:39;;;;;;;3.67;3.13;;;8.60;88.60;;;;;;5008029;28;20219;-72
2021/10/05 05:09:06;;;;;;;3.57;3.27;;;8.70;88.50;;;;;;5009611;28;20188;-71
2021/10/05 05:11:32;;;;;;;6.83;4.13;;;8.70;88.50;;;;;;5009366;28;21117;-72
2021/10/05 05:14:05;;;;;;;5.53;3.37;;;8.70;88.50;;;;;;5013560;28;20173;-70
2021/10/05 05:16:31;;;;;;;3.57;3.30;;;8.70;88.40;;;;;;5009146;28;20173;-72
2021/10/05 05:18:57;;;;;;;4.50;3.33;;;8.80;88.40;;;;;;5007499;28;20293;-72
2021/10/05 05:21:23;;;;;;;2.70;2.50;;;8.80;88.40;;;;;;5013379;28;20271;-71
2021/10/05 05:23:50;;;;;;;5.20;3.37;;;;;;;;;;5011923;28;20316;-71
2021/10/05 05:26:15;;;;;;;3.80;3.50;;;8.90;88.60;;;;;;5015887;28;20205;-71
2021/10/05 05:28:41;;;;;;;2.97;2.87;;;8.90;88.60;;;;;;5005507;28;20243;-68
2021/10/05 05:31:10;;;;;;;4.60;4.20;;;9.00;88.40;;;;;;5009182;28;20615;-72
2021/10/05 05:33:36;;;;;;;4.50;3.93;;;9.00;88.40;;;;;;5008862;28;20885;-70
2021/10/05 05:36:02;;;;;;;3.43;3.23;;;9.10;88.30;;;;;;5007046;28;20243;-72
2021/10/05 05:38:27;;;;;;;5.83;4.13;;;9.10;88.10;;;;;;5012805;28;20201;-72
2021/10/05 05:40:54;;;;;;;4.47;3.23;;;9.20;88.30;;;;;;5010622;28;20296;-71
2021/10/05 05:43:20;;;;;;;4.23;3.93;;;9.20;88.30;;;;;;5009877;28;20198;-70
2021/10/05 05:45:46;;;;;;;6.67;4.20;;;9.30;87.90;;;;;;5009408;28;20188;-70
2021/10/05 05:48:12;;;;;;;4.77;4.37;;;9.30;87.90;;;;;;5015426;28;20185;-71
2021/10/05 05:50:38;;;;;;;6.90;4.03;;;9.40;87.70;;;;;;5013811;28;20176;-70
2021/10/05 05:53:03;;;;;;;5.07;4.67;;;9.40;87.90;;;;;;5016052;28;20189;-70
2021/10/05 05:55:29;;;;;;;4.27;3.83;;;9.50;87.60;;;;;;5013350;28;20709;-70
2021/10/05 05:57:55;;;;;;;4.53;4.17;;;9.50;87.50;;;;;;5020243;28;20181;-70
2021/10/05 06:00:21;;;;;;;4.87;3.87;;;9.60;87.70;;;;;;5015955;28;20219;-70
2021/10/05 06:02:47;;;;;;;4.73;4.00;;;9.60;87.30;;;;;;5017641;28;20185;-71
2021/10/05 06:05:13;;;;;;;11.67;4.30;;;9.70;87.30;;;;;;5024048;28;20216;-71
2021/10/05 06:07:39;;;;;;;5.00;4.47;;;9.70;87.40;;;;;;5015618;28;20180;-71
2021/10/05 06:10:06;;;;;;;4.93;4.43;;;9.80;87.70;;;;;;5016867;28;20298;-72
2021/10/05 06:12:41;;;;;;;4.00;3.73;;;9.90;87.80;;;;;;5017743;28;20678;-71
2021/10/05 06:15:12;;;;;;;4.43;3.90;;;9.90;87.80;;;;;;5022795;28;20188;-71
2021/10/05 06:17:39;;;;;;;6.20;4.20;;;10.00;88.10;;;;;;5014300;28;20180;-71
2021/10/05 06:20:11;;;;;;;5.73;4.97;;;10.00;87.60;;;;;;5020814;28;20184;-71
2021/10/05 06:22:37;;;;;;;4.73;4.27;;;10.10;87.30;;;;;;5016398;28;20180;-71
2021/10/05 06:25:07;;;;;;;4.77;4.33;;;10.20;87.20;;;;;;5019645;28;20212;-71
2021/10/05 06:27:33;;;;;;;5.73;4.47;;;10.20;87.10;;;;;;5019282;28;20267;-71
2021/10/05 06:29:59;;;;;;;7.07;5.00;;;10.20;87.00;;;;;;5016805;28;20612;-71
2021/10/05 06:32:25;;;;;;;5.13;4.73;;;10.30;86.90;;;;;;5020330;28;20201;-71
2021/10/05 06:34:51;;;;;;;4.67;4.27;;;10.40;86.90;;;;;;5013820;28;20177;-71
2021/10/05 06:37:17;;;;;;;5.27;3.93;;;10.40;86.70;;;;;;5015943;28;20577;-71
2021/10/05 06:39:43;;;;;;;3.80;3.50;;;10.60;86.50;;;;;;5013359;28;20261;-71
2021/10/05 06:42:09;;;;;;;5.30;4.80;;;;;;;;;;5018482;28;20204;-71
2021/10/05 06:44:35;;;;;;;5.40;4.90;;;10.70;86.30;;;;;;5015714;28;20600;-71
2021/10/05 06:47:01;;;;;;;4.87;4.47;;;10.70;86.20;;;;;;5016059;28;20180;-70
2021/10/05 06:49:27;;;;;;;5.03;4.60;;;10.80;86.10;;;;;;5015294;28;20195;-71
2021/10/05 06:51:53;;;;;;;7.67;5.10;;;10.90;86.10;;;;;;5016681;28;20177;-71
2021/10/05 06:54:18;;;;;;;5.57;5.07;;;11.00;85.90;;;;;;5014625;28;20196;-71
2021/10/05 06:56:44;;;;;;;10.30;4.80;;;11.00;85.90;;;;;;5012768;28;20877;-71
2021/10/05 06:59:10;;;;;;;5.83;5.33;;;11.10;85.90;;;;;;5017226;28;20185;-71
2021/10/05 07:01:36;;;;;;;5.77;5.23;;;11.20;85.60;;;;;;5012350;28;20273;-71
2021/10/05 07:04:01;;;;;;;15.70;5.30;;;11.30;85.50;;;;;;5018508;28;20248;-70
2021/10/05 07:06:27;;;;;;;6.10;5.50;;;11.40;85.50;;;;;;5024141;28;20180;-71
2021/10/05 07:08:55;;;;;;;8.30;5.47;;;11.50;85.40;;;;;;5016258;28;20268;-70
2021/10/05 07:11:21;;;;;;;7.23;5.50;;;11.60;85.30;;;;;;5022135;28;20706;-71
2021/10/05 07:13:47;;;;;;;9.73;5.70;;;11.70;85.10;;;;;;5014348;28;20272;-70
2021/10/05 07:16:13;;;;;;;5.82;4.25;;;11.80;85.00;;;;;;5016273;28;20264;-71
2021/10/05 07:18:39;;;;;;;5.20;4.53;;;12.00;84.70;;;;;;5014159;28;20273;-71
2021/10/05 07:21:04;;;;;;;6.17;5.00;;;12.10;84.40;;;;;;5020749;28;20238;-71
2021/10/05 07:23:30;;;;;;;5.93;4.18;;;12.30;84.00;;;;;;5015409;28;20216;-71
2021/10/05 07:25:56;;;;;;;4.93;4.40;;;12.40;83.80;;;;;;5013907;28;20651;-71
2021/10/05 07:28:22;;;;;;;4.97;4.53;;;12.60;83.70;;;;;;5013409;28;20193;-71
2021/10/05 07:30:48;;;;;;;4.82;4.38;;;12.80;83.40;;;;;;5013190;28;20172;-71
2021/10/05 07:33:15;;;;;;;8.38;4.28;;;13.10;83.20;;;;;;5015030;28;20181;-71
2021/10/05 07:35:41;;;;;;;5.25;4.55;;;13.50;82.10;;;;;;5009951;28;20206;-70
2021/10/05 07:38:07;;;;;;;5.55;4.75;;;14.00;80.80;;;;;;5020303;28;20180;-71
2021/10/05 07:40:33;;;;;;;5.00;4.68;;;15.10;78.50;;;;;;5018644;28;20226;-71
2021/10/05 07:43:01;;;;;;;4.53;4.25;;;15.20;77.60;;;;;;5015715;28;20292;-72
2021/10/05 07:45:31;;;;;;;5.15;4.60;;;16.10;76.80;;;;;;5014325;28;20682;-71
2021/10/05 07:47:57;;;;;;;6.95;3.97;;;18.00;74.50;;;;;;5009704;28;20184;-72
2021/10/05 07:50:24;;;;;;;4.82;4.18;;;18.10;74.40;;;;;;5014109;28;20188;-72
2021/10/05 07:52:50;;;;;;;4.00;3.70;;;19.10;70.60;;;;;;5017121;28;20177;-72
2021/10/05 07:55:17;;;;;;;5.38;4.85;;;20.10;68.40;;;;;;5012821;28;20188;-71
2021/10/05 07:57:43;;;;;;;4.57;4.20;;;21.00;66.30;;;;;;5016214;28;20259;-72
2021/10/05 08:00:10;;;;;;;4.50;4.15;;;21.80;64.10;;;;;;5020473;28;20177;-71
2021/10/05 08:02:36;;;;;;;6.90;4.55;;;22.60;63.10;;;;;;5014203;28;20188;-71
2021/10/05 08:05:03;;;;;;;5.30;4.80;;;23.40;61.90;;;;;;5016899;28;20319;-71
2021/10/05 08:07:28;;;;;;;4.38;4.00;;;24.10;60.10;;;;;;5013776;28;20261;-71
2021/10/05 08:09:55;;;;;;;5.97;3.83;;;24.80;60.40;;;;;;5018794;28;20180;-70
2021/10/05 08:12:21;;;;;;;3.88;3.67;;;25.50;58.10;;;;;;5016980;28;20200;-71
2021/10/05 08:14:47;;;;;;;4.38;4.00;;;26.30;57.50;;;;;;5016297;28;20191;-71
2021/10/05 08:17:13;;;;;;;3.83;3.67;;;26.90;56.10;;;;;;5012987;28;20177;-71
2021/10/05 08:19:39;;;;;;;3.75;3.55;;;27.60;55.30;;;;;;5013775;28;20187;-72
2021/10/05 08:22:05;;;;;;;4.75;2.97;;;28.10;54.00;;;;;;5014219;28;20177;-71
2021/10/05 08:24:31;;;;;;;5.53;3.28;;;28.60;53.10;;;;;;5018980;28;20815;-71
2021/10/05 08:26:57;;;;;;;6.80;3.45;;;29.10;52.90;;;;;;5014798;28;20210;-71
2021/10/05 08:29:23;;;;;;;3.90;3.05;;;29.60;51.20;;;;;;5015157;28;20744;-71
2021/10/05 08:31:50;;;;;;;4.22;3.92;;;30.10;51.30;;;;;;5013276;28;20678;-71
2021/10/05 08:34:17;;;;;;;4.40;3.03;;;30.70;50.60;;;;;;5016472;28;20181;-72
2021/10/05 08:36:44;;;;;;;3.40;3.20;;;31.20;51.30;;;;;;5013018;28;20297;-70
2021/10/05 08:39:17;;;;;;;3.50;3.30;;;31.70;50.80;;;;;;5018257;28;20183;-71
2021/10/05 08:41:45;;;;;;;4.57;3.38;;;32.20;49.70;;;;;;5014283;28;20188;-71
2021/10/05 08:44:11;;;;;;;3.38;3.17;;;32.60;48.00;;;;;;5013666;28;20212;-71
2021/10/05 08:46:38;;;;;;;6.10;3.65;;;32.80;48.70;;;;;;5009854;28;20188;-72
2021/10/05 08:49:05;;;;;;;5.70;3.20;;;32.90;46.50;;;;;;5011675;28;20184;-71
2021/10/05 08:51:31;;;;;;;4.10;3.00;;;33.20;47.00;;;;;;5014224;28;20177;-71
2021/10/05 08:53:56;;;;;;;4.80;3.17;;;33.40;46.30;;;;;;5019106;28;20187;-71
2021/10/05 08:56:22;;;;;;;3.42;3.08;;;33.60;46.40;;;;;;5011797;28;20559;-72
2021/10/05 08:58:48;;;;;;;4.32;2.97;;;33.70;46.20;;;;;;5008288;28;20192;-71
2021/10/05 09:01:16;;;;;;;3.40;2.70;;;34.00;47.10;;;;;;5012179;28;20248;-71
2021/10/05 09:03:53;;;;;;;4.72;2.78;;;34.20;45.40;;;;;;5014263;28;20209;-71
2021/10/05 09:06:21;;;;;;;3.08;2.75;;;34.60;45.10;;;;;;5015232;28;20169;-71
2021/10/05 09:08:48;;;;;;;3.20;3.03;;;35.20;45.70;;;;;;5017652;28;20172;-71
2021/10/05 09:11:16;;;;;;;3.92;3.35;;;35.30;45.80;;;;;;5012312;28;20201;-72
2021/10/05 09:13:51;;;;;;;5.95;3.15;;;36.10;44.80;;;;;;5015505;28;20199;-72
2021/10/05 09:16:25;;;;;;;6.30;3.22;;;36.20;45.00;;;;;;5017173;28;20688;-71
2021/10/05 09:19:11;;;;;;;3.28;2.83;;;36.60;43.50;;;;;;5015104;28;20181;-71
2021/10/05 09:21:41;;;;;;;3.13;2.92;;;36.60;42.10;;;;;;5020020;28;20840;-71
2021/10/05 09:24:24;;;;;;;3.47;2.60;;;36.80;43.30;;;;;;5014786;28;20215;-71
2021/10/05 09:26:54;;;;;;;2.53;2.42;;;37.10;43.60;;;;;;5019166;28;20194;-71
2021/10/05 09:29:22;;;;;;;4.00;2.55;;;37.40;42.40;;;;;;5018050;28;20176;-71
2021/10/05 09:31:50;;;;;;;4.53;2.50;;;37.40;43.10;;;;;;5014004;28;20183;-71
2021/10/05 09:34:17;;;;;;;3.08;2.75;;;37.30;42.60;;;;;;5009319;28;20187;-71
2021/10/05 09:36:42;;;;;;;2.80;2.60;;;37.30;42.90;;;;;;5017407;28;20271;-71
2021/10/05 09:39:08;;;;;;;2.85;2.67;;;37.10;41.30;;;;;;5011115;28;20190;-71
2021/10/05 09:41:34;;;;;;;4.45;2.78;;;36.50;41.60;;;;;;5015980;28;20262;-71
2021/10/05 09:44:03;;;;;;;2.65;2.55;;;35.50;42.70;;;;;;5016207;28;20261;-71
2021/10/05 09:46:30;;;;;;;2.60;2.50;;;34.20;43.50;;;;;;5014742;28;20549;-70
2021/10/05 09:49:09;;;;;;;3.53;3.20;;;34.20;45.00;;;;;;5014458;28;20175;-72
2021/10/05 09:51:35;;;;;;;2.70;2.60;;;34.30;43.90;;;;;;5012860;28;20184;-72
2021/10/05 09:54:02;;;;;;;3.72;2.65;;;34.30;44.20;;;;;;5013981;28;20187;-70
2021/10/05 09:56:30;;;;;;;2.58;2.40;;;34.30;44.60;;;;;;5009606;28;20185;-70
2021/10/05 09:58:57;;;;;;;2.67;2.47;;;34.30;45.90;;;;;;5008955;28;20180;-72
2021/10/05 10:01:26;;;;;;;2.20;2.10;;;34.50;46.10;;;;;;5013363;28;20574;-72
2021/10/05 10:03:52;;;;;;;2.05;1.95;;;34.60;44.30;;;;;;5012119;28;20423;-72
2021/10/05 10:06:19;;;;;;;2.25;2.25;;;34.70;44.50;;;;;;5016024;28;20188;-72
2021/10/05 10:08:46;;;;;;;2.90;2.30;;;34.50;44.50;;;;;;5015193;28;20206;-72
2021/10/05 10:11:12;;;;;;;2.10;2.00;;;34.50;44.60;;;;;;5011826;28;20243;-72
2021/10/05 10:13:38;;;;;;;4.13;2.00;;;34.90;44.30;;;;;;5016284;28;20813;-72
2021/10/05 10:16:04;;;;;;;2.30;1.67;;;35.00;44.70;;;;;;5013180;28;20183;-72
2021/10/05 10:18:30;;;;;;;1.85;1.73;;;35.20;43.90;;;;;;5008334;28;20251;-72
2021/10/05 10:21:06;;;;;;;6.88;1.95;;;35.50;43.50;;;;;;5014317;28;20184;-72
2021/10/05 10:23:33;;;;;;;3.60;1.95;;;36.00;43.40;;;;;;5012170;28;20937;-72
2021/10/05 10:26:08;;;;;;;1.58;1.58;;;36.40;41.90;;;;;;5013057;28;20186;-72
2021/10/05 10:28:37;;;;;;;1.88;1.67;;;36.70;40.20;;;;;;5010121;28;20211;-72
2021/10/05 10:31:06;;;;;;;1.75;1.63;;;36.20;41.10;;;;;;5006754;28;20188;-72
2021/10/05 10:33:45;;;;;;;2.00;1.90;;;36.20;41.20;;;;;;5011935;28;20270;-72
2021/10/05 10:36:10;;;;;;;1.77;1.67;;;35.40;40.70;;;;;;5014145;28;20176;-72
2021/10/05 10:38:42;;;;;;;2.25;2.15;;;34.70;42.30;;;;;;5014353;28;20655;-72
2021/10/05 10:41:15;;;;;;;2.03;1.88;;;34.30;43.10;;;;;;5016908;28;20217;-72
2021/10/05 10:43:52;;;;;;;1.88;1.83;;;34.20;43.70;;;;;;5018926;28;20234;-72
2021/10/05 10:46:35;;;;;;;2.55;2.35;;;34.30;43.30;;;;;;5016631;28;20175;-72
2021/10/05 10:49:04;;;;;;;2.28;2.08;;;34.60;43.00;;;;;;5019891;28;20188;-72
2021/10/05 10:51:38;;;;;;;1.80;1.80;;;34.70;44.00;;;;;;5010430;28;20657;-71
2021/10/05 10:54:13;;;;;;;1.50;1.50;;;34.90;43.40;;;;;;5015285;28;20278;-71
2021/10/05 10:56:40;;;;;;;1.95;1.92;;;35.40;43.20;;;;;;5014319;28;20207;-71
2021/10/05 10:59:12;;;;;;;2.10;2.10;;;35.60;41.80;;;;;;5019648;28;20607;-71
2021/10/05 11:01:47;;;;;;;1.95;1.88;;;34.70;41.80;;;;;;5016749;28;20276;-71
2021/10/05 11:04:15;;;;;;;2.30;2.20;;;34.70;41.80;;;;;;5015635;28;20218;-71
2021/10/05 11:06:50;;;;;;;1.92;1.83;;;34.60;42.60;;;;;;5011370;28;20199;-71
2021/10/05 11:09:16;;;;;;;2.00;1.90;;;34.70;42.70;;;;;;5003745;28;20595;-71
2021/10/05 11:11:43;;;;;;;2.55;2.10;;;34.70;41.70;;;;;;5018344;28;20618;-70
2021/10/05 11:14:23;;;;;;;3.33;1.80;;;34.70;41.70;;;;;;5014716;28;20653;-70
2021/10/05 11:17:17;;;;;;;1.73;1.73;;;34.60;40.90;;;;;;5008209;28;20200;-69
2021/10/05 11:19:43;;;;;;;2.13;2.03;;;34.50;41.40;;;;;;5019373;28;20673;-71
2021/10/05 11:22:12;;;;;;;2.08;1.83;;;34.60;42.80;;;;;;5016057;28;20238;-71
2021/10/05 11:24:47;;;;;;;2.33;1.95;;;34.90;43.10;;;;;;5012907;28;20215;-69
2021/10/05 11:27:16;;;;;;;1.85;1.85;;;35.30;43.20;;;;;;5011155;28;20192;-69
2021/10/05 11:29:42;;;;;;;1.83;1.73;;;35.50;41.60;;;;;;5012984;28;20185;-71
2021/10/05 11:32:12;;;;;;;1.70;1.70;;;35.50;42.40;;;;;;5013555;28;20189;-71
2021/10/05 11:34:39;;;;;;;2.70;1.98;;;35.40;40.60;;;;;;5011105;28;20199;-71
2021/10/05 11:37:08;;;;;;;2.50;2.35;;;35.00;41.20;;;;;;5012004;28;20188;-71
2021/10/05 11:39:35;;;;;;;3.25;2.22;;;34.80;43.20;;;;;;5017091;28;20183;-71
2021/10/05 11:42:10;;;;;;;2.08;1.98;;;34.90;42.50;;;;;;5013798;28;20187;-71
2021/10/05 11:44:47;;;;;;;1.98;1.80;;;34.90;42.10;;;;;;5007408;28;20215;-71
2021/10/05 11:47:15;;;;;;;2.30;1.98;;;34.40;43.80;;;;;;5013847;28;20202;-71
2021/10/05 11:49:44;;;;;;;1.95;1.85;;;34.50;43.80;;;;;;5009618;28;20195;-70
2021/10/05 11:52:15;;;;;;;2.78;2.58;;;34.70;43.70;;;;;;5010649;28;20694;-71
2021/10/05 11:54:41;;;;;;;5.97;2.05;;;34.60;43.80;;;;;;5012182;28;20183;-70
2021/10/05 11:57:16;;;;;;;1.95;1.85;;;34.60;43.80;;;;;;5011574;28;20771;-70
2021/10/05 11:59:43;;;;;;;2.53;2.35;;;34.70;43.80;;;;;;5016675;28;20180;-70
2021/10/05 12:02:12;;;;;;;2.00;2.00;;;34.70;42.50;;;;;;5008987;28;20176;-71
2021/10/05 12:04:40;;;;;;;1.80;1.80;;;34.50;42.70;;;;;;5013225;28;20221;-71
2021/10/05 12:07:14;;;;;;;1.75;1.73;;;34.30;44.00;;;;;;5015228;28;20181;-71
2021/10/05 12:09:40;;;;;;;1.70;1.70;;;34.20;43.30;;;;;;5012520;28;20582;-71
2021/10/05 12:12:11;;;;;;;2.97;2.05;;;33.70;43.80;;;;;;5015551;28;20648;-71
2021/10/05 12:14:52;;;;;;;1.58;1.58;;;33.60;44.10;;;;;;5006963;28;20189;-71
2021/10/05 12:17:19;;;;;;;2.17;2.08;;;33.60;43.80;;;;;;5008255;28;20705;-71
2021/10/05 12:19:51;;;;;;;2.13;2.03;;;33.70;44.50;;;;;;5009983;28;20181;-70
2021/10/05 12:22:32;;;;;;;2.95;1.80;;;33.70;45.00;;;;;;5010330;28;20287;-71
2021/10/05 12:25:05;;;;;;;2.03;1.95;;;33.80;43.40;;;;;;5014253;28;20259;-71
2021/10/05 12:27:30;;;;;;;5.43;2.20;;;33.60;44.40;;;;;;5015135;28;20187;-71
2021/10/05 12:30:05;;;;;;;3.55;2.15;;;33.50;45.60;;;;;;5015015;28;20570;-71
2021/10/05 12:32:33;;;;;;;1.88;1.77;;;33.30;45.40;;;;;;5013186;28;20183;-69
2021/10/05 12:34:59;;;;;;;1.92;1.77;;;33.40;44.80;;;;;;5013230;28;20204;-71
2021/10/05 12:37:30;;;;;;;2.33;2.17;;;33.20;44.10;;;;;;5015710;28;20217;-72
2021/10/05 12:39:58;;;;;;;1.75;1.75;;;32.80;44.70;;;;;;5020314;28;20191;-72
2021/10/05 12:42:39;;;;;;;4.80;1.80;;;32.60;45.60;;;;;;5011598;28;20181;-71
2021/10/05 12:45:17;;;;;;;1.35;1.35;;;32.50;45.40;;;;;;5010996;28;20303;-70
2021/10/05 12:47:50;;;;;;;1.75;1.75;;;32.30;45.10;;;;;;5011250;28;20247;-71
2021/10/05 12:50:21;;;;;;;1.38;1.38;;;32.00;46.00;;;;;;5011408;28;20189;-71
2021/10/05 12:52:52;;;;;;;1.75;1.65;;;32.20;45.50;;;;;;5015422;28;20192;-71
2021/10/05 12:55:18;;;;;;;1.80;1.70;;;32.30;46.10;;;;;;5011775;28;20613;-71
2021/10/05 12:57:43;;;;;;;3.70;1.80;;;32.30;44.90;;;;;;5011184;28;20211;-71